Time;durP1;ratioP1;P1;durP2;ratioP2;P2;SDS_P1;SDS_P2;PMS_P1;PMS_P2;Temp;Humidity;BMP_temperature;BMP_pressure;BME280_temperature;BME280_humidity;BME280_pressure;Samples;Min_cycle;Max_cycle;Signal;HPM_P1;HPM_P2
2022/03/31 00:00:57;;;;;;;;;;;3.00;99.90;;;;;;4933018;29;19927;-72
2022/03/31 00:03:23;;;;;;;;;;;2.90;99.90;;;;;;4931398;29;19966;-72
2022/03/31 00:05:49;;;;;;;;;;;2.90;99.90;;;;;;4931590;29;20370;-72
2022/03/31 00:08:15;;;;;;;;;;;3.10;99.90;;;;;;4935255;29;20295;-72
2022/03/31 00:10:45;;;;;;;;;;;2.80;99.90;;;;;;4933126;29;19926;-73
2022/03/31 00:13:11;;;;;;;;;;;2.80;99.90;;;;;;4931828;29;19926;-72
2022/03/31 00:15:37;;;;;;;;;;;2.90;99.90;;;;;;4940689;29;19927;-72
2022/03/31 00:18:03;;;;;;;;;;;3.00;99.90;;;;;;4932336;28;19927;-72
2022/03/31 00:23:36;;;;;;;;;;;2.80;99.90;;;;;;4915448;29;19933;-72
2022/03/31 00:26:02;;;;;;;;;;;2.80;99.90;;;;;;4932819;29;19927;-72
2022/03/31 00:28:28;;;;;;;;;;;2.90;99.90;;;;;;4932434;29;20350;-72
2022/03/31 00:30:54;;;;;;;;;;;2.70;99.90;;;;;;4957086;28;19933;-72
2022/03/31 00:33:19;;;;;;;;;;;2.80;99.90;;;;;;5011098;28;19926;-72
2022/03/31 00:35:45;;;;;;;;;;;2.80;99.90;;;;;;5012900;28;20398;-72
2022/03/31 00:38:11;;;;;;;;;;;2.80;99.90;;;;;;5011326;28;19945;-72
2022/03/31 00:40:37;;;;;;;;;;;2.70;99.90;;;;;;5012711;28;20004;-73
2022/03/31 00:43:02;;;;;;;;;;;2.70;99.90;;;;;;5011526;28;19969;-72
2022/03/31 00:45:32;;;;;;;;;;;2.80;99.90;;;;;;4995085;28;19929;-71
2022/03/31 00:47:57;;;;;;;;;;;2.60;99.90;;;;;;5012006;28;19926;-72
2022/03/31 00:50:23;;;;;;;;;;;2.50;99.90;;;;;;4993576;28;19941;-72
2022/03/31 00:52:49;;;;;;;;;;;2.50;99.90;;;;;;5009888;28;19922;-71
2022/03/31 00:55:16;;;;;;;;;;;2.40;99.90;;;;;;5009653;28;20253;-72
2022/03/31 00:57:42;;;;;;;;;;;2.40;99.90;;;;;;5011341;28;19926;-71
2022/03/31 01:00:08;;;;;;;;;;;2.30;99.90;;;;;;5012316;28;19949;-71
2022/03/31 01:02:40;;;;;;;;;;;2.30;99.90;;;;;;5012352;28;19987;-71
2022/03/31 01:05:06;;;;;;;;;;;2.30;99.90;;;;;;5008153;28;21249;-71
2022/03/31 01:07:35;;;;;;;;;;;2.20;99.90;;;;;;5012376;28;19933;-71
2022/03/31 01:10:00;;;;;;;;;;;2.10;99.90;;;;;;5012297;28;19949;-71
2022/03/31 01:12:26;;;;;;;;;;;2.10;99.90;;;;;;5012130;28;19933;-71
2022/03/31 01:15:07;;;;;;;;;;;2.00;99.90;;;;;;5010102;28;19925;-72
2022/03/31 01:17:33;;;;;;;;;;;2.00;99.90;;;;;;5012119;28;20332;-72
2022/03/31 01:19:59;;;;;;;;;;;1.90;99.90;;;;;;4998917;28;19964;-72
2022/03/31 01:22:28;;;;;;;;;;;2.00;99.90;;;;;;4994413;28;19979;-72
2022/03/31 01:24:54;;;;;;;;;;;1.80;99.90;;;;;;5014499;28;19925;-73
2022/03/31 01:27:19;;;;;;;;;;;1.80;99.90;;;;;;5013008;28;19926;-72
2022/03/31 01:29:45;;;;;;;;;;;1.80;99.90;;;;;;4997871;28;19961;-72
2022/03/31 01:32:11;;;;;;;;;;;1.80;99.90;;;;;;5013421;28;20305;-72
2022/03/31 01:34:37;;;;;;;;;;;1.80;99.90;;;;;;5015647;28;20054;-72
2022/03/31 01:37:04;;;;;;;;;;;1.70;99.90;;;;;;5018429;28;20008;-72
2022/03/31 01:39:29;;;;;;;;;;;1.80;99.90;;;;;;5018180;28;20290;-72
2022/03/31 01:41:55;;;;;;;;;;;1.70;99.90;;;;;;5018645;28;19933;-71
2022/03/31 01:44:21;;;;;;;;;;;1.70;99.90;;;;;;4999333;28;20020;-71
2022/03/31 01:46:48;;;;;;;;;;;1.70;99.90;;;;;;5018567;28;20431;-71
2022/03/31 01:49:14;;;;;;;;;;;1.70;99.90;;;;;;5019012;28;20035;-71
2022/03/31 01:51:39;;;;;;;;;;;1.70;99.90;;;;;;5057199;22;19968;-48
2022/03/31 01:54:07;;;;;;;;;;;1.70;99.90;;;;;;5036944;28;20240;-48
2022/03/31 01:56:34;;;;;;;;;;;1.70;99.90;;;;;;5037948;28;19971;-50
2022/03/31 01:58:59;;;;;;;;;;;1.70;99.90;;;;;;5034624;28;20421;-48
2022/03/31 02:01:25;;;;;;;;;;;1.70;99.90;;;;;;5037793;28;20024;-53
2022/03/31 02:03:50;;;;;;;;;;;1.60;99.90;;;;;;5038180;28;19987;-47
2022/03/31 02:06:16;;;;;;;;;;;1.60;99.90;;;;;;5037036;28;19931;-51
2022/03/31 02:08:41;;;;;;;;;;;1.60;99.90;;;;;;5037603;28;20003;-47
2022/03/31 02:11:08;;;;;;;;;;;1.60;99.90;;;;;;5020660;28;19968;-46
2022/03/31 02:13:34;;;;;;;;;;;1.50;99.90;;;;;;5036593;28;19940;-47
2022/03/31 02:15:59;;;;;;;;;;;1.50;99.90;;;;;;5036588;28;20367;-49
2022/03/31 02:18:25;;;;;;;;;;;1.50;99.90;;;;;;5037686;28;20387;-47
2022/03/31 02:20:51;;;;;;;;;;;1.40;99.90;;;;;;5038049;28;19996;-49
2022/03/31 02:23:16;;;;;;;;;;;1.40;99.90;;;;;;5037489;28;19929;-49
2022/03/31 02:25:43;;;;;;;;;;;1.40;99.90;;;;;;5037359;28;20470;-47
2022/03/31 02:28:09;;;;;;;;;;;1.40;99.90;;;;;;5037006;28;19925;-48
2022/03/31 02:30:35;;;;;;;;;;;1.30;99.90;;;;;;5037461;28;20402;-47
2022/03/31 02:33:02;;;;;;;;;;;1.40;99.90;;;;;;5037562;28;19925;-48
2022/03/31 02:35:28;;;;;;;;;;;1.40;99.90;;;;;;5019790;28;19976;-50
2022/03/31 02:37:54;;;;;;;;;;;1.40;99.90;;;;;;5031160;28;19984;-49
2022/03/31 02:40:19;;;;;;;;;;;1.40;99.90;;;;;;5036459;28;19932;-48
2022/03/31 02:42:45;;;;;;;;;;;1.40;99.90;;;;;;5033619;28;19933;-46
2022/03/31 02:45:10;;;;;;;;;;;1.40;99.90;;;;;;5034622;28;20374;-51
2022/03/31 02:47:36;;;;;;;;;;;1.40;99.90;;;;;;5016340;28;20046;-49
2022/03/31 02:50:03;;;;;;;;;;;1.50;99.90;;;;;;5034967;28;20120;-51
2022/03/31 02:55:24;;;;;;;;;;;1.50;99.90;;;;;;5013465;28;20284;-47
2022/03/31 02:55:27;;;;;;;;;;;1.50;99.90;;;;;;5012457;28;19921;-50
2022/03/31 02:58:03;;;;;;;;;;;1.50;99.90;;;;;;5012341;28;20020;-47
2022/03/31 03:00:30;;;;;;;;;;;1.50;99.90;;;;;;5014230;28;20336;-47
2022/03/31 03:02:56;;;;;;;;;;;1.60;99.90;;;;;;5014522;28;19960;-49
2022/03/31 03:05:22;;;;;;;;;;;1.60;99.90;;;;;;5014516;28;19972;-51
2022/03/31 03:07:48;;;;;;;;;;;1.60;99.90;;;;;;5012088;28;19926;-48
2022/03/31 03:10:13;;;;;;;;;;;1.70;99.90;;;;;;5013723;28;19933;-47
2022/03/31 03:12:40;;;;;;;;;;;1.70;99.90;;;;;;5014205;28;20372;-47
2022/03/31 03:15:05;;;;;;;;;;;1.70;99.90;;;;;;5014236;28;20067;-50
2022/03/31 03:17:31;;;;;;;;;;;1.70;99.90;;;;;;5013858;28;20395;-47
2022/03/31 03:19:56;;;;;;;;;;;1.70;99.90;;;;;;5014297;28;20403;-47
2022/03/31 03:22:22;;;;;;;;;;;1.80;99.90;;;;;;5013938;28;19933;-47
2022/03/31 03:24:47;;;;;;;;;;;1.90;99.90;;;;;;5013076;28;19979;-48
2022/03/31 03:27:13;;;;;;;;;;;1.90;99.90;;;;;;5013752;28;19996;-48
2022/03/31 03:29:46;;;;;;;;;;;1.90;99.90;;;;;;5012435;28;19984;-47
2022/03/31 03:32:12;;;;;;;;;;;1.90;99.90;;;;;;5011785;28;19925;-47
2022/03/31 03:34:38;;;;;;;;;;;2.00;99.90;;;;;;5013616;28;19983;-47
2022/03/31 03:37:03;;;;;;;;;;;2.00;99.90;;;;;;5012136;28;19930;-48
2022/03/31 03:39:30;;;;;;;;;;;2.00;99.90;;;;;;5010149;28;20012;-47
2022/03/31 03:41:56;;;;;;;;;;;2.10;99.90;;;;;;5012794;28;19925;-48
2022/03/31 03:44:21;;;;;;;;;;;2.00;99.90;;;;;;5010713;28;19979;-46
2022/03/31 03:46:47;;;;;;;;;;;2.00;99.90;;;;;;5011627;28;20427;-47
2022/03/31 03:49:12;;;;;;;;;;;2.00;99.90;;;;;;5012910;28;20261;-47
2022/03/31 03:51:39;;;;;;;;;;;1.90;99.90;;;;;;5012962;28;19995;-48
2022/03/31 03:54:04;;;;;;;;;;;2.00;99.90;;;;;;5012720;28;19967;-47
2022/03/31 03:56:30;;;;;;;;;;;2.00;99.90;;;;;;5013154;28;20286;-49
2022/03/31 03:58:55;;;;;;;;;;;2.00;99.90;;;;;;5012789;28;19980;-47
2022/03/31 04:01:20;;;;;;;;;;;2.00;99.90;;;;;;5012897;28;19926;-47
2022/03/31 04:03:46;;;;;;;;;;;1.90;99.90;;;;;;5012975;28;20403;-47
2022/03/31 04:06:11;;;;;;;;;;;2.00;99.90;;;;;;5012771;28;19925;-48
2022/03/31 04:08:38;;;;;;;;;;;2.00;99.90;;;;;;5012453;28;19926;-48
2022/03/31 04:11:03;;;;;;;;;;;2.00;99.90;;;;;;5012767;28;19938;-47
2022/03/31 04:13:29;;;;;;;;;;;2.00;99.90;;;;;;5010240;28;19933;-49
2022/03/31 04:15:54;;;;;;;;;;;2.00;99.90;;;;;;5009486;28;19972;-47
2022/03/31 04:18:20;;;;;;;;;;;2.00;99.90;;;;;;5011016;28;19925;-49
2022/03/31 04:20:45;;;;;;;;;;;2.20;99.90;;;;;;5012333;28;19925;-48
2022/03/31 04:23:10;;;;;;;;;;;2.10;99.90;;;;;;5010928;28;19925;-47
2022/03/31 04:25:36;;;;;;;;;;;2.10;99.90;;;;;;5010492;28;19968;-48
2022/03/31 04:28:03;;;;;;;;;;;2.10;99.90;;;;;;5012789;28;19947;-51
2022/03/31 04:30:29;;;;;;;;;;;2.10;99.90;;;;;;5009593;28;19930;-48
2022/03/31 04:32:55;;;;;;;;;;;2.10;99.90;;;;;;5009690;28;20283;-52
2022/03/31 04:35:20;;;;;;;;;;;2.20;99.90;;;;;;5012487;28;19979;-48
2022/03/31 04:37:46;;;;;;;;;;;2.20;99.90;;;;;;5012220;28;19977;-48
2022/03/31 04:40:11;;;;;;;;;;;2.20;99.90;;;;;;5011486;28;19926;-47
2022/03/31 04:42:37;;;;;;;;;;;2.20;99.90;;;;;;5011972;28;19929;-47
2022/03/31 04:45:03;;;;;;;;;;;2.20;99.90;;;;;;5009320;28;19926;-47
2022/03/31 04:47:29;;;;;;;;;;;2.20;99.90;;;;;;5010217;28;20016;-49
2022/03/31 04:49:55;;;;;;;;;;;2.20;99.90;;;;;;5012277;28;20025;-51
2022/03/31 04:52:20;;;;;;;;;;;2.20;99.90;;;;;;5011621;28;19995;-47
2022/03/31 04:54:46;;;;;;;;;;;2.10;99.90;;;;;;5011158;28;19929;-48
2022/03/31 04:57:12;;;;;;;;;;;2.10;99.90;;;;;;5010666;28;20342;-52
2022/03/31 04:59:38;;;;;;;;;;;2.10;99.90;;;;;;5008952;28;19976;-48
2022/03/31 05:02:04;;;;;;;;;;;2.10;99.90;;;;;;5011215;28;19969;-49
2022/03/31 05:04:29;;;;;;;;;;;2.00;99.90;;;;;;5011205;28;19929;-50
2022/03/31 05:06:55;;;;;;;;;;;2.00;99.90;;;;;;5009054;28;19948;-47
2022/03/31 05:09:21;;;;;;;;;;;2.00;99.90;;;;;;5010166;28;19926;-48
2022/03/31 05:11:47;;;;;;;;;;;1.90;99.90;;;;;;5009713;28;19925;-48
2022/03/31 05:14:12;;;;;;;;;;;2.00;99.90;;;;;;5009426;28;19926;-50
2022/03/31 05:16:37;;;;;;;;;;;1.90;99.90;;;;;;5009315;28;19926;-47
2022/03/31 05:19:03;;;;;;;;;;;2.00;99.90;;;;;;5009621;28;19933;-47
2022/03/31 05:21:29;;;;;;;;;;;2.00;99.90;;;;;;5011326;28;19975;-50
2022/03/31 05:23:54;;;;;;;;;;;1.90;99.90;;;;;;4993239;28;19925;-53
2022/03/31 05:26:20;;;;;;;;;;;2.00;99.90;;;;;;5011314;28;19926;-52
2022/03/31 05:28:45;;;;;;;;;;;2.00;99.90;;;;;;5011480;28;19926;-49
2022/03/31 05:31:10;;;;;;;;;;;2.10;99.90;;;;;;5011720;28;20011;-49
2022/03/31 05:33:36;;;;;;;;;;;2.10;99.90;;;;;;5011398;28;19925;-48
2022/03/31 05:36:01;;;;;;;;;;;2.00;99.90;;;;;;5011052;28;20383;-49
2022/03/31 05:38:27;;;;;;;;;;;2.00;99.90;;;;;;5005336;28;19933;-47
2022/03/31 05:40:53;;;;;;;;;;;2.30;99.90;;;;;;5011567;28;20067;-53
2022/03/31 05:43:18;;;;;;;;;;;2.00;99.90;;;;;;5011724;28;20035;-50
2022/03/31 05:45:44;;;;;;;;;;;2.00;99.90;;;;;;5011372;28;20299;-52
2022/03/31 05:48:09;;;;;;;;;;;2.00;99.90;;;;;;4993894;28;19999;-49
2022/03/31 05:50:35;;;;;;;;;;;2.00;99.90;;;;;;5009227;28;19925;-47
2022/03/31 05:53:00;;;;;;;;;;;2.00;99.90;;;;;;5011735;28;19921;-48
2022/03/31 05:55:26;;;;;;;;;;;2.00;99.90;;;;;;5010724;28;19933;-51
2022/03/31 05:57:51;;;;;;;;;;;2.00;99.90;;;;;;5011157;28;19948;-48
2022/03/31 06:00:18;;;;;;;;;;;2.10;99.90;;;;;;5010081;28;19925;-48
2022/03/31 06:02:46;;;;;;;;;;;2.10;99.90;;;;;;5010158;28;19987;-49
2022/03/31 06:05:11;;;;;;;;;;;2.10;99.90;;;;;;5010702;28;19925;-47
2022/03/31 06:07:37;;;;;;;;;;;2.10;99.90;;;;;;5011394;28;19933;-49
2022/03/31 06:10:03;;;;;;;;;;;2.10;99.90;;;;;;5011044;28;19984;-52
2022/03/31 06:12:28;;;;;;;;;;;2.10;99.90;;;;;;5012355;28;20315;-50
2022/03/31 06:14:54;;;;;;;;;;;2.20;99.90;;;;;;5011311;28;20012;-49
2022/03/31 06:17:19;;;;;;;;;;;2.50;99.90;;;;;;5013778;28;19932;-50
2022/03/31 06:19:45;;;;;;;;;;;2.40;99.90;;;;;;5011801;28;20387;-48
2022/03/31 06:22:10;;;;;;;;;;;2.20;99.90;;;;;;5013385;28;19948;-47
2022/03/31 06:24:36;;;;;;;;;;;2.40;99.90;;;;;;5015180;28;19925;-52
2022/03/31 06:27:02;;;;;;;;;;;2.20;99.90;;;;;;5015209;28;19932;-48
2022/03/31 06:29:27;;;;;;;;;;;2.10;99.90;;;;;;5014989;28;19949;-50
2022/03/31 06:31:53;;;;;;;;;;;2.30;99.90;;;;;;5013279;28;20720;-51
2022/03/31 06:34:20;;;;;;;;;;;2.50;99.90;;;;;;5008858;28;20292;-47
2022/03/31 06:36:45;;;;;;;;;;;2.40;99.90;;;;;;5011259;28;19941;-52
2022/03/31 06:39:10;;;;;;;;;;;2.30;99.90;;;;;;5011856;28;19925;-49
2022/03/31 06:41:36;;;;;;;;;;;2.30;99.90;;;;;;5016032;28;19960;-50
2022/03/31 06:44:02;;;;;;;;;;;2.30;99.90;;;;;;5014860;28;20300;-49
2022/03/31 06:46:27;;;;;;;;;;;2.30;99.90;;;;;;5012687;28;19925;-47
2022/03/31 06:48:53;;;;;;;;;;;2.30;99.90;;;;;;5013181;28;20388;-48
2022/03/31 06:51:18;;;;;;;;;;;2.30;99.90;;;;;;5008221;28;19933;-48
2022/03/31 06:53:44;;;;;;;;;;;2.40;99.90;;;;;;5007885;28;19961;-50
2022/03/31 06:56:10;;;;;;;;;;;2.40;99.90;;;;;;5011108;28;19934;-47
2022/03/31 06:58:36;;;;;;;;;;;2.40;99.90;;;;;;5014587;28;19925;-53
2022/03/31 07:01:03;;;;;;;;;;;2.40;99.90;;;;;;5013639;28;19925;-49
2022/03/31 07:03:29;;;;;;;;;;;2.50;99.90;;;;;;5014426;28;19925;-50
2022/03/31 07:05:55;;;;;;;;;;;2.40;99.90;;;;;;5007245;28;19925;-49
2022/03/31 07:08:21;;;;;;;;;;;2.50;99.90;;;;;;5007111;28;19938;-52
2022/03/31 07:10:46;;;;;;;;;;;2.50;99.90;;;;;;5011139;28;20296;-47
2022/03/31 07:13:12;;;;;;;;;;;2.50;99.90;;;;;;5012089;28;19925;-48
2022/03/31 07:15:37;;;;;;;;;;;2.50;99.90;;;;;;5014331;28;19972;-49
2022/03/31 07:18:04;;;;;;;;;;;2.60;99.90;;;;;;5015209;28;20376;-50
2022/03/31 07:20:30;;;;;;;;;;;2.60;99.90;;;;;;5014837;28;19965;-50
2022/03/31 07:22:55;;;;;;;;;;;2.60;99.90;;;;;;5015154;28;19925;-53
2022/03/31 07:25:21;;;;;;;;;;;2.70;99.90;;;;;;5013802;28;19925;-48
2022/03/31 07:27:47;;;;;;;;;;;2.70;99.90;;;;;;5012200;28;20020;-52
2022/03/31 07:30:13;;;;;;;;;;;2.70;99.90;;;;;;5014593;28;20352;-51
2022/03/31 07:32:39;;;;;;;;;;;;;;;;;;5004411;28;19933;-49
2022/03/31 07:35:05;;;;;;;;;;;2.60;99.90;;;;;;5014570;28;19925;-52
2022/03/31 07:37:30;;;;;;;;;;;2.60;99.90;;;;;;5014488;28;20008;-52
2022/03/31 07:39:56;;;;;;;;;;;2.60;99.90;;;;;;5008988;28;19926;-49
2022/03/31 07:42:21;;;;;;;;;;;2.70;99.90;;;;;;5013507;28;19926;-50
2022/03/31 07:44:47;;;;;;;;;;;2.70;99.90;;;;;;5013798;28;20308;-51
2022/03/31 07:47:12;;;;;;;;;;;2.70;99.90;;;;;;5014060;28;19933;-49
2022/03/31 07:49:38;;;;;;;;;;;2.70;99.90;;;;;;5013591;28;20472;-53
2022/03/31 07:52:03;;;;;;;;;;;2.80;99.90;;;;;;5014002;28;20334;-50
2022/03/31 07:54:29;;;;;;;;;;;2.80;99.90;;;;;;5013634;28;19941;-47
2022/03/31 07:56:55;;;;;;;;;;;2.90;99.90;;;;;;4996910;28;19925;-48
2022/03/31 07:59:23;;;;;;;;;;;2.90;99.90;;;;;;5014057;28;19952;-50
2022/03/31 08:01:49;;;;;;;;;;;2.90;99.90;;;;;;5013941;28;19956;-49
2022/03/31 08:04:16;;;;;;;;;;;3.00;99.90;;;;;;4996426;28;19925;-49
2022/03/31 08:06:42;;;;;;;;;;;2.90;99.90;;;;;;5012605;28;19987;-54
2022/03/31 08:09:08;;;;;;;;;;;2.90;99.90;;;;;;5013485;28;19932;-50
2022/03/31 08:11:34;;;;;;;;;;;2.90;99.90;;;;;;5013945;28;19988;-51
2022/03/31 08:13:59;;;;;;;;;;;2.90;99.90;;;;;;5013962;28;19929;-51
2022/03/31 08:16:25;;;;;;;;;;;2.90;99.90;;;;;;5013503;28;19929;-49
2022/03/31 08:18:50;;;;;;;;;;;3.00;99.90;;;;;;5014237;28;19926;-51
2022/03/31 08:21:16;;;;;;;;;;;3.00;99.90;;;;;;5013818;28;20055;-49
2022/03/31 08:23:41;;;;;;;;;;;3.00;99.90;;;;;;5014388;28;20016;-50
2022/03/31 08:26:07;;;;;;;;;;;3.00;99.90;;;;;;5012866;28;20447;-52
2022/03/31 08:28:33;;;;;;;;;;;3.00;99.90;;;;;;5010047;28;20019;-52
2022/03/31 08:30:59;;;;;;;;;;;3.20;99.90;;;;;;5013132;28;20410;-49
2022/03/31 08:33:25;;;;;;;;;;;3.00;99.90;;;;;;5012088;28;20084;-49
2022/03/31 08:35:50;;;;;;;;;;;3.10;99.90;;;;;;5012575;28;19929;-49
2022/03/31 08:38:16;;;;;;;;;;;3.20;99.90;;;;;;5012827;28;19925;-49
2022/03/31 08:40:42;;;;;;;;;;;3.10;99.90;;;;;;5011430;28;19987;-50
2022/03/31 08:43:08;;;;;;;;;;;3.10;99.90;;;;;;5013309;28;19929;-49
2022/03/31 08:45:35;;;;;;;;;;;3.10;99.90;;;;;;5012126;28;19968;-48
2022/03/31 08:48:01;;;;;;;;;;;3.50;99.90;;;;;;5013434;28;19926;-49
2022/03/31 08:50:27;;;;;;;;;;;3.30;99.90;;;;;;5012488;28;20446;-50
2022/03/31 08:52:53;;;;;;;;;;;3.30;99.90;;;;;;5012313;28;19921;-50
2022/03/31 08:55:19;;;;;;;;;;;3.40;99.90;;;;;;4991714;28;19926;-49
2022/03/31 08:57:49;;;;;;;;;;;3.40;99.90;;;;;;4995457;28;19925;-53
2022/03/31 09:00:15;;;;;;;;;;;3.20;99.90;;;;;;5013096;28;19967;-51
2022/03/31 09:02:52;;;;;;;;;;;3.50;99.90;;;;;;5013283;28;19969;-47
2022/03/31 09:05:17;;;;;;;;;;;3.30;99.90;;;;;;5012770;28;20400;-48
2022/03/31 09:08:00;;;;;;;;;;;3.20;99.90;;;;;;5012399;28;21070;-47
2022/03/31 09:10:25;;;;;;;;;;;3.40;99.90;;;;;;5013205;28;20318;-47
2022/03/31 09:12:51;;;;;;;;;;;3.30;99.90;;;;;;5012421;28;19925;-48
2022/03/31 09:15:16;;;;;;;;;;;;;;;;;;5012765;28;19925;-48
2022/03/31 09:17:42;;;;;;;;;;;;;;;;;;5012911;28;19976;-48
2022/03/31 09:20:08;;;;;;;;;;;3.40;99.90;;;;;;5012757;28;20060;-53
2022/03/31 09:22:34;;;;;;;;;;;;;;;;;;5006578;28;20304;-48
2022/03/31 09:25:01;;;;;;;;;;;3.80;99.90;;;;;;5012288;28;19932;-49
2022/03/31 09:27:26;;;;;;;;;;;3.50;99.90;;;;;;5011967;28;19926;-48
2022/03/31 09:29:52;;;;;;;;;;;3.50;99.90;;;;;;5012883;28;19925;-48
2022/03/31 09:32:17;;;;;;;;;;;3.50;99.90;;;;;;5012539;28;20015;-49
2022/03/31 09:34:44;;;;;;;;;;;3.50;99.90;;;;;;5012387;28;19925;-48
2022/03/31 09:37:10;;;;;;;;;;;3.40;99.90;;;;;;5011706;28;19952;-50
2022/03/31 09:39:37;;;;;;;;;;;3.40;99.90;;;;;;5012278;28;20380;-48
2022/03/31 09:42:10;;;;;;;;;;;3.40;99.90;;;;;;5012340;28;20402;-48
2022/03/31 09:44:36;;;;;;;;;;;3.40;99.90;;;;;;5011418;28;19931;-50
2022/03/31 09:47:02;;;;;;;;;;;3.40;99.90;;;;;;5012629;28;19926;-48
2022/03/31 09:49:27;;;;;;;;;;;3.40;99.90;;;;;;5012080;28;20343;-48
2022/03/31 09:51:57;;;;;;;;;;;3.30;99.90;;;;;;5011566;28;20012;-49
2022/03/31 09:54:25;;;;;;;;;;;3.30;99.90;;;;;;5016224;28;19926;-49
2022/03/31 09:56:51;;;;;;;;;;;3.20;99.90;;;;;;5012195;28;19992;-50
2022/03/31 09:59:17;;;;;;;;;;;3.30;99.90;;;;;;5015693;28;19965;-51
2022/03/31 10:01:43;;;;;;;;;;;3.10;99.90;;;;;;5000702;28;20026;-51
2022/03/31 10:04:09;;;;;;;;;;;2.90;99.90;;;;;;5015944;28;19925;-51
2022/03/31 10:06:36;;;;;;;;;;;2.90;99.90;;;;;;5016177;28;20376;-52
2022/03/31 10:09:02;;;;;;;;;;;2.80;99.90;;;;;;5015738;28;20425;-53
2022/03/31 10:11:28;;;;;;;;;;;2.70;99.90;;;;;;5015294;28;20319;-48
2022/03/31 10:13:59;;;;;;;;;;;2.70;99.90;;;;;;5016930;28;19926;-49
2022/03/31 10:16:51;;;;;;;;;;;2.70;99.90;;;;;;5013812;28;20461;-50
2022/03/31 10:19:26;;;;;;;;;;;2.60;99.90;;;;;;4978495;28;19925;-51
2022/03/31 10:22:01;;;;;;;;;;;2.50;99.90;;;;;;5016683;28;19983;-51
2022/03/31 10:24:42;;;;;;;;;;;2.30;99.90;;;;;;5001689;28;20336;-51
2022/03/31 10:27:08;;;;;;;;;;;2.30;99.90;;;;;;5011316;28;20299;-52
2022/03/31 10:29:38;;;;;;;;;;;2.20;99.90;;;;;;5015460;28;19947;-48
2022/03/31 10:32:13;;;;;;;;;;;2.20;99.90;;;;;;4990188;28;19925;-52
2022/03/31 10:34:44;;;;;;;;;;;2.30;99.90;;;;;;5013201;28;19945;-50
2022/03/31 10:37:10;;;;;;;;;;;2.20;99.90;;;;;;5015366;28;19971;-49
2022/03/31 10:39:36;;;;;;;;;;;2.20;99.90;;;;;;5014796;28;20382;-53
2022/03/31 10:42:03;;;;;;;;;;;2.30;99.90;;;;;;5012836;28;19932;-53
2022/03/31 10:44:28;;;;;;;;;;;2.30;99.90;;;;;;5014474;28;19925;-47
2022/03/31 10:47:05;;;;;;;;;;;2.30;99.90;;;;;;5014259;28;19933;-49
2022/03/31 10:49:31;;;;;;;;;;;2.20;99.90;;;;;;5015546;28;19968;-51
2022/03/31 10:51:56;;;;;;;;;;;2.30;99.90;;;;;;5013882;28;19968;-48
2022/03/31 10:54:33;;;;;;;;;;;2.20;99.90;;;;;;5015903;28;19926;-49
2022/03/31 10:57:05;;;;;;;;;;;2.10;99.90;;;;;;5011158;28;19992;-53
2022/03/31 10:59:32;;;;;;;;;;;2.20;99.90;;;;;;5015536;28;19925;-49
2022/03/31 11:02:01;;;;;;;;;;;2.10;99.90;;;;;;5012612;28;19972;-48
2022/03/31 11:04:26;;;;;;;;;;;2.10;99.90;;;;;;5014779;28;19925;-51
2022/03/31 11:06:52;;;;;;;;;;;2.10;99.90;;;;;;5013968;28;20326;-48
2022/03/31 11:09:21;;;;;;;;;;;2.10;99.90;;;;;;5012085;28;19926;-48
2022/03/31 11:11:55;;;;;;;;;;;2.20;99.90;;;;;;5011289;28;19935;-48
2022/03/31 11:14:21;;;;;;;;;;;2.20;99.90;;;;;;5010369;28;19933;-51
2022/03/31 11:16:46;;;;;;;;;;;2.40;99.90;;;;;;5013519;28;19937;-52
2022/03/31 11:19:13;;;;;;;;;;;2.40;99.90;;;;;;5014977;28;19925;-54
2022/03/31 11:21:43;;;;;;;;;;;2.30;99.90;;;;;;5013437;28;19926;-49
2022/03/31 11:24:09;;;;;;;;;;;2.40;99.90;;;;;;5014235;28;19932;-52
2022/03/31 11:26:40;;;;;;;;;;;2.40;99.90;;;;;;5014413;28;19926;-50
2022/03/31 11:29:09;;;;;;;;;;;2.50;99.90;;;;;;5015367;28;19926;-50
2022/03/31 11:31:34;;;;;;;;;;;2.50;99.90;;;;;;5012452;28;19925;-52
2022/03/31 11:34:01;;;;;;;;;;;2.40;99.90;;;;;;5014761;28;19957;-50
2022/03/31 11:36:35;;;;;;;;;;;2.50;99.90;;;;;;5012635;28;19934;-48
2022/03/31 11:39:01;;;;;;;;;;;2.50;99.90;;;;;;5014493;28;20335;-48
2022/03/31 11:41:36;;;;;;;;;;;2.60;99.90;;;;;;5008707;28;19947;-48
2022/03/31 11:44:02;;;;;;;;;;;2.70;99.90;;;;;;5013342;28;19925;-48
2022/03/31 11:46:47;;;;;;;;;;;2.70;99.90;;;;;;5012794;28;19933;-53
2022/03/31 11:49:26;;;;;;;;;;;2.60;99.90;;;;;;5001941;28;19929;-50
2022/03/31 11:51:51;;;;;;;;;;;2.70;99.90;;;;;;4999310;28;19932;-52
2022/03/31 11:54:18;;;;;;;;;;;2.80;99.90;;;;;;5011210;28;19926;-48
2022/03/31 11:56:44;;;;;;;;;;;2.80;99.90;;;;;;5013273;28;19932;-50
2022/03/31 11:59:09;;;;;;;;;;;2.80;99.90;;;;;;5014225;28;19940;-50
2022/03/31 12:01:45;;;;;;;;;;;2.90;99.90;;;;;;5013354;28;19925;-51
2022/03/31 12:04:18;;;;;;;;;;;3.00;99.90;;;;;;5014549;28;19952;-49
2022/03/31 12:06:44;;;;;;;;;;;3.00;99.90;;;;;;5013710;28;19956;-49
2022/03/31 12:09:10;;;;;;;;;;;3.10;99.90;;;;;;5004953;28;19933;-48
2022/03/31 12:11:36;;;;;;;;;;;3.10;99.90;;;;;;5012585;28;19996;-49
2022/03/31 12:14:03;;;;;;;;;;;3.20;99.90;;;;;;5010238;28;20387;-49
2022/03/31 12:16:29;;;;;;;;;;;3.20;99.90;;;;;;5008709;28;20060;-50
2022/03/31 12:18:58;;;;;;;;;;;3.30;99.90;;;;;;5012466;28;20291;-49
2022/03/31 12:21:27;;;;;;;;;;;3.30;99.90;;;;;;5011294;28;20289;-52
2022/03/31 12:23:56;;;;;;;;;;;3.30;99.90;;;;;;5012138;28;19932;-50
2022/03/31 12:26:22;;;;;;;;;;;3.40;99.90;;;;;;5010656;28;20390;-49
2022/03/31 12:28:49;;;;;;;;;;;3.40;99.90;;;;;;5010102;28;19973;-53
2022/03/31 12:31:27;;;;;;;;;;;3.40;99.90;;;;;;5008175;28;20384;-48
2022/03/31 12:33:52;;;;;;;;;;;3.50;99.90;;;;;;5010872;28;19972;-54
2022/03/31 12:36:23;;;;;;;;;;;3.50;99.90;;;;;;5007421;28;20023;-51
2022/03/31 12:38:49;;;;;;;;;;;3.60;99.90;;;;;;5005483;28;19936;-50
2022/03/31 12:41:22;;;;;;;;;;;3.60;99.90;;;;;;5005441;28;19925;-52
2022/03/31 12:43:55;;;;;;;;;;;3.60;99.90;;;;;;5011712;28;19925;-51
2022/03/31 12:46:21;;;;;;;;;;;3.70;99.90;;;;;;5008000;28;19926;-54
2022/03/31 12:48:53;;;;;;;;;;;3.70;99.90;;;;;;5005297;28;19972;-49
2022/03/31 12:51:20;;;;;;;;;;;3.70;99.90;;;;;;5007851;28;20284;-49
2022/03/31 12:53:45;;;;;;;;;;;3.70;99.90;;;;;;5009984;28;19933;-52
2022/03/31 12:56:11;;;;;;;;;;;3.70;99.90;;;;;;5006856;28;19926;-49
2022/03/31 12:58:37;;;;;;;;;;;3.70;99.90;;;;;;5007794;28;20363;-53
2022/03/31 13:01:03;;;;;;;;;;;3.80;99.90;;;;;;5004125;28;20283;-53
2022/03/31 13:03:29;;;;;;;;;;;3.80;99.90;;;;;;5004697;28;19933;-49
2022/03/31 13:05:54;;;;;;;;;;;3.80;99.90;;;;;;5003985;28;19932;-48
2022/03/31 13:08:20;;;;;;;;;;;3.90;99.90;;;;;;5000879;28;19932;-52
2022/03/31 13:10:46;;;;;;;;;;;4.00;99.90;;;;;;5001817;28;20442;-52
2022/03/31 13:13:11;;;;;;;;;;;4.10;99.90;;;;;;4998264;28;19930;-52
2022/03/31 13:15:40;;;;;;;;;;;4.20;99.90;;;;;;5002875;28;19925;-48
2022/03/31 13:18:07;;;;;;;;;;;4.20;99.90;;;;;;5003893;28;20997;-51
2022/03/31 13:20:32;;;;;;;;;;;4.30;99.90;;;;;;4999678;28;19979;-53
2022/03/31 13:22:58;;;;;;;;;;;4.40;99.90;;;;;;5004495;28;19933;-48
2022/03/31 13:25:23;;;;;;;;;;;4.50;99.90;;;;;;5008817;28;19926;-50
2022/03/31 13:27:49;;;;;;;;;;;4.60;99.90;;;;;;5007034;28;19932;-49
2022/03/31 13:30:14;;;;;;;;;;;4.60;99.90;;;;;;5010753;28;20016;-51
2022/03/31 13:32:40;;;;;;;;;;;4.70;99.90;;;;;;5012225;28;19932;-52
2022/03/31 13:35:06;;;;;;;;;;;4.80;99.90;;;;;;5011848;28;20905;-50
2022/03/31 13:37:34;;;;;;;;;;;4.80;99.90;;;;;;5006005;28;19961;-49
2022/03/31 13:39:59;;;;;;;;;;;4.80;99.90;;;;;;5010906;28;20384;-51
2022/03/31 13:42:25;;;;;;;;;;;4.80;99.90;;;;;;5013346;28;19972;-48
2022/03/31 13:44:52;;;;;;;;;;;4.80;99.90;;;;;;5009227;28;19951;-50
2022/03/31 13:47:18;;;;;;;;;;;4.90;99.90;;;;;;5011472;28;20016;-50
2022/03/31 13:49:43;;;;;;;;;;;4.90;99.90;;;;;;5009743;28;20019;-49
2022/03/31 13:52:09;;;;;;;;;;;5.00;99.90;;;;;;5011737;28;19948;-53
2022/03/31 13:54:36;;;;;;;;;;;5.10;99.90;;;;;;5010903;28;20012;-53
2022/03/31 13:57:02;;;;;;;;;;;5.10;99.90;;;;;;5012204;28;20356;-50
2022/03/31 14:02:13;;;;;;;;;;;5.20;99.90;;;;;;5004433;28;19931;-49
2022/03/31 14:04:39;;;;;;;;;;;5.30;99.90;;;;;;5008979;28;19929;-48
2022/03/31 14:07:06;;;;;;;;;;;5.20;99.90;;;;;;5012353;28;19925;-50
2022/03/31 14:09:32;;;;;;;;;;;5.20;99.90;;;;;;5010540;28;19925;-47
2022/03/31 14:11:59;;;;;;;;;;;5.20;99.90;;;;;;5009481;28;19929;-52
2022/03/31 14:14:25;;;;;;;;;;;5.10;99.90;;;;;;5011524;28;20384;-50
2022/03/31 14:16:52;;;;;;;;;;;5.00;99.90;;;;;;5010743;28;19926;-48
2022/03/31 14:19:20;;;;;;;;;;;5.00;99.90;;;;;;5009755;28;20432;-50
2022/03/31 14:21:47;;;;;;;;;;;5.00;99.90;;;;;;5007050;28;20012;-50
2022/03/31 14:24:13;;;;;;;;;;;5.00;99.90;;;;;;4989754;28;19926;-50
2022/03/31 14:26:40;;;;;;;;;;;5.00;99.90;;;;;;5010373;28;19945;-49
2022/03/31 14:29:06;;;;;;;;;;;5.00;99.90;;;;;;5011845;28;19972;-52
2022/03/31 14:31:32;;;;;;;;;;;5.10;99.90;;;;;;5007334;28;19933;-50
2022/03/31 14:33:57;;;;;;;;;;;5.10;99.90;;;;;;5009751;28;19936;-51